sensor_id;sensor_type;location;lat;lon;timestamp;pressure;altitude;pressure_sealevel;temperature
79148;BMP280;68562;51.600;6.524;2023-12-20T00:00:00;1013.7;;;12.6
79148;BMP280;68562;51.600;6.524;2023-12-20T00:05:00;1013.9;;;12.6
79148;BMP280;68562;51.600;6.524;2023-12-20T00:10:03;1013.8;;;12.4
79148;BMP280;68562;51.600;6.524;2023-12-20T00:15:00;1013.8;;;12.3
79148;BMP280;68562;51.600;6.524;2023-12-20T00:20:00;1013.8;;;12.2
79148;BMP280;68562;51.600;6.524;2023-12-20T00:25:00;1014.0;;;12.1
79148;BMP280;68562;51.600;6.524;2023-12-20T00:30:00;1014.0;;;12.1
79148;BMP280;68562;51.600;6.524;2023-12-20T00:35:00;1013.9;;;12.1
79148;BMP280;68562;51.600;6.524;2023-12-20T00:40:01;1014.0;;;12.1
79148;BMP280;68562;51.600;6.524;2023-12-20T00:45:00;1014.0;;;12.1
79148;BMP280;68562;51.600;6.524;2023-12-20T00:50:00;1014.0;;;12.1
79148;BMP280;68562;51.600;6.524;2023-12-20T00:55:03;1014.1;;;12.2
79148;BMP280;68562;51.600;6.524;2023-12-20T01:00:00;1014.1;;;12.1
79148;BMP280;68562;51.600;6.524;2023-12-20T01:05:00;1014.1;;;11.9
79148;BMP280;68562;51.600;6.524;2023-12-20T01:10:00;1014.1;;;11.7
79148;BMP280;68562;51.600;6.524;2023-12-20T01:15:00;1014.1;;;11.4
79148;BMP280;68562;51.600;6.524;2023-12-20T01:20:00;1014.0;;;11.4
79148;BMP280;68562;51.600;6.524;2023-12-20T01:25:01;1014.1;;;11.3
79148;BMP280;68562;51.600;6.524;2023-12-20T01:30:00;1014.2;;;11.4
79148;BMP280;68562;51.600;6.524;2023-12-20T01:35:00;1014.1;;;11.3
79148;BMP280;68562;51.600;6.524;2023-12-20T01:40:00;1014.1;;;11.3
79148;BMP280;68562;51.600;6.524;2023-12-20T01:45:00;1014.1;;;11.2
79148;BMP280;68562;51.600;6.524;2023-12-20T01:50:00;1014.2;;;11.1
79148;BMP280;68562;51.600;6.524;2023-12-20T01:55:01;1014.3;;;11.1
79148;BMP280;68562;51.600;6.524;2023-12-20T02:00:00;1014.3;;;11.0
79148;BMP280;68562;51.600;6.524;2023-12-20T02:05:00;1014.2;;;10.9
79148;BMP280;68562;51.600;6.524;2023-12-20T02:10:00;1014.1;;;10.8
79148;BMP280;68562;51.600;6.524;2023-12-20T02:15:00;1014.1;;;10.7
79148;BMP280;68562;51.600;6.524;2023-12-20T02:20:00;1014.2;;;10.6
79148;BMP280;68562;51.600;6.524;2023-12-20T02:25:00;1014.1;;;10.6
79148;BMP280;68562;51.600;6.524;2023-12-20T02:30:00;1014.2;;;10.6
79148;BMP280;68562;51.600;6.524;2023-12-20T02:35:00;1014.2;;;10.4
79148;BMP280;68562;51.600;6.524;2023-12-20T02:40:02;1014.2;;;10.7
79148;BMP280;68562;51.600;6.524;2023-12-20T02:45:00;1014.3;;;10.5
79148;BMP280;68562;51.600;6.524;2023-12-20T02:50:00;1014.2;;;10.4
79148;BMP280;68562;51.600;6.524;2023-12-20T02:55:00;1014.2;;;10.3
79148;BMP280;68562;51.600;6.524;2023-12-20T03:00:00;1014.2;;;10.5
79148;BMP280;68562;51.600;6.524;2023-12-20T03:05:00;1014.2;;;10.4
79148;BMP280;68562;51.600;6.524;2023-12-20T03:10:00;1014.2;;;10.4
79148;BMP280;68562;51.600;6.524;2023-12-20T03:15:00;1014.1;;;10.3
79148;BMP280;68562;51.600;6.524;2023-12-20T03:20:00;1014.0;;;10.4
79148;BMP280;68562;51.600;6.524;2023-12-20T03:25:02;1014.1;;;10.5
79148;BMP280;68562;51.600;6.524;2023-12-20T03:30:00;1014.1;;;10.2
79148;BMP280;68562;51.600;6.524;2023-12-20T03:35:00;1014.1;;;10.1
79148;BMP280;68562;51.600;6.524;2023-12-20T03:40:00;1014.0;;;10.2
79148;BMP280;68562;51.600;6.524;2023-12-20T03:45:00;1013.9;;;10.1
79148;BMP280;68562;51.600;6.524;2023-12-20T03:50:00;1013.9;;;10.2
79148;BMP280;68562;51.600;6.524;2023-12-20T03:55:02;1013.9;;;10.1
79148;BMP280;68562;51.600;6.524;2023-12-20T04:00:00;1013.9;;;10.2
79148;BMP280;68562;51.600;6.524;2023-12-20T04:05:00;1013.9;;;10.1
79148;BMP280;68562;51.600;6.524;2023-12-20T04:10:00;1013.9;;;10.2
79148;BMP280;68562;51.600;6.524;2023-12-20T04:15:00;1013.8;;;10.0
79148;BMP280;68562;51.600;6.524;2023-12-20T04:20:00;1013.9;;;10.0
79148;BMP280;68562;51.600;6.524;2023-12-20T04:25:00;1013.9;;;9.9
79148;BMP280;68562;51.600;6.524;2023-12-20T04:30:02;1014.0;;;10.1
79148;BMP280;68562;51.600;6.524;2023-12-20T04:35:00;1014.0;;;10.1
79148;BMP280;68562;51.600;6.524;2023-12-20T04:40:00;1014.0;;;9.9
79148;BMP280;68562;51.600;6.524;2023-12-20T04:45:00;1014.0;;;10.0
79148;BMP280;68562;51.600;6.524;2023-12-20T04:50:00;1014.0;;;9.8
79148;BMP280;68562;51.600;6.524;2023-12-20T04:55:00;1013.8;;;9.9
79148;BMP280;68562;51.600;6.524;2023-12-20T05:00:00;1013.9;;;9.8
79148;BMP280;68562;51.600;6.524;2023-12-20T05:05:00;1014.0;;;9.9
79148;BMP280;68562;51.600;6.524;2023-12-20T05:10:00;1013.9;;;9.8
79148;BMP280;68562;51.600;6.524;2023-12-20T05:15:00;1013.9;;;9.7
79148;BMP280;68562;51.600;6.524;2023-12-20T05:20:00;1013.8;;;9.7
79148;BMP280;68562;51.600;6.524;2023-12-20T05:25:00;1013.8;;;9.8
79148;BMP280;68562;51.600;6.524;2023-12-20T05:30:00;1013.6;;;9.7
79148;BMP280;68562;51.600;6.524;2023-12-20T05:35:00;1013.5;;;9.8
79148;BMP280;68562;51.600;6.524;2023-12-20T05:40:00;1013.6;;;9.7
79148;BMP280;68562;51.600;6.524;2023-12-20T05:45:01;1013.6;;;9.8
79148;BMP280;68562;51.600;6.524;2023-12-20T05:50:00;1013.7;;;9.8
79148;BMP280;68562;51.600;6.524;2023-12-20T05:55:00;1013.6;;;9.7
79148;BMP280;68562;51.600;6.524;2023-12-20T06:00:00;1013.6;;;9.8
79148;BMP280;68562;51.600;6.524;2023-12-20T06:05:00;1013.7;;;9.8
79148;BMP280;68562;51.600;6.524;2023-12-20T06:10:00;1013.7;;;9.9
79148;BMP280;68562;51.600;6.524;2023-12-20T06:15:00;1013.8;;;10.0
79148;BMP280;68562;51.600;6.524;2023-12-20T06:20:00;1013.8;;;9.9
79148;BMP280;68562;51.600;6.524;2023-12-20T06:25:00;1013.9;;;10.0
79148;BMP280;68562;51.600;6.524;2023-12-20T06:30:02;1013.8;;;9.9
79148;BMP280;68562;51.600;6.524;2023-12-20T06:35:00;1013.8;;;10.0
79148;BMP280;68562;51.600;6.524;2023-12-20T06:40:00;1013.9;;;10.0
79148;BMP280;68562;51.600;6.524;2023-12-20T06:45:02;1013.9;;;10.0
79148;BMP280;68562;51.600;6.524;2023-12-20T06:50:00;1013.8;;;10.0
79148;BMP280;68562;51.600;6.524;2023-12-20T06:55:00;1013.7;;;9.9
79148;BMP280;68562;51.600;6.524;2023-12-20T07:00:01;1013.7;;;9.9
79148;BMP280;68562;51.600;6.524;2023-12-20T07:05:00;1013.5;;;9.9
79148;BMP280;68562;51.600;6.524;2023-12-20T07:10:00;1013.4;;;9.9
79148;BMP280;68562;51.600;6.524;2023-12-20T07:15:01;1013.6;;;10.0
79148;BMP280;68562;51.600;6.524;2023-12-20T07:20:00;1013.6;;;10.1
79148;BMP280;68562;51.600;6.524;2023-12-20T07:25:00;1013.7;;;10.1
79148;BMP280;68562;51.600;6.524;2023-12-20T07:30:00;1013.7;;;10.1
79148;BMP280;68562;51.600;6.524;2023-12-20T07:35:00;1013.8;;;10.0
79148;BMP280;68562;51.600;6.524;2023-12-20T07:40:00;1013.7;;;10.1
79148;BMP280;68562;51.600;6.524;2023-12-20T07:45:01;1013.6;;;10.1
79148;BMP280;68562;51.600;6.524;2023-12-20T07:50:00;1013.7;;;10.1
79148;BMP280;68562;51.600;6.524;2023-12-20T07:55:00;1013.7;;;10.1
79148;BMP280;68562;51.600;6.524;2023-12-20T08:00:00;1013.5;;;10.2
79148;BMP280;68562;51.600;6.524;2023-12-20T08:05:00;1013.7;;;10.2
79148;BMP280;68562;51.600;6.524;2023-12-20T08:10:00;1013.6;;;10.3
79148;BMP280;68562;51.600;6.524;2023-12-20T08:15:01;1013.6;;;10.3
79148;BMP280;68562;51.600;6.524;2023-12-20T08:20:00;1013.7;;;10.2
79148;BMP280;68562;51.600;6.524;2023-12-20T08:25:00;1013.9;;;10.2
79148;BMP280;68562;51.600;6.524;2023-12-20T08:30:00;1013.9;;;10.2
79148;BMP280;68562;51.600;6.524;2023-12-20T08:35:00;1013.9;;;10.2
79148;BMP280;68562;51.600;6.524;2023-12-20T08:40:02;1013.8;;;10.3
79148;BMP280;68562;51.600;6.524;2023-12-20T08:45:00;1013.8;;;10.3
79148;BMP280;68562;51.600;6.524;2023-12-20T08:50:00;1013.9;;;10.3
79148;BMP280;68562;51.600;6.524;2023-12-20T08:55:00;1013.9;;;10.2
79148;BMP280;68562;51.600;6.524;2023-12-20T09:00:00;1013.7;;;10.4
79148;BMP280;68562;51.600;6.524;2023-12-20T09:05:00;1013.7;;;10.4
79148;BMP280;68562;51.600;6.524;2023-12-20T09:10:00;1013.7;;;10.4
79148;BMP280;68562;51.600;6.524;2023-12-20T09:15:00;1013.6;;;10.3
79148;BMP280;68562;51.600;6.524;2023-12-20T09:20:00;1013.6;;;10.4
79148;BMP280;68562;51.600;6.524;2023-12-20T09:25:00;1013.6;;;10.4
79148;BMP280;68562;51.600;6.524;2023-12-20T09:30:00;1013.5;;;10.4
79148;BMP280;68562;51.600;6.524;2023-12-20T09:35:01;1013.6;;;10.4
79148;BMP280;68562;51.600;6.524;2023-12-20T09:40:00;1013.6;;;10.4
79148;BMP280;68562;51.600;6.524;2023-12-20T09:45:02;1013.7;;;10.3
79148;BMP280;68562;51.600;6.524;2023-12-20T09:50:02;1013.6;;;10.4
79148;BMP280;68562;51.600;6.524;2023-12-20T09:55:01;1013.6;;;10.4
79148;BMP280;68562;51.600;6.524;2023-12-20T10:00:00;1013.7;;;10.5
79148;BMP280;68562;51.600;6.524;2023-12-20T10:05:00;1013.7;;;10.7
79148;BMP280;68562;51.600;6.524;2023-12-20T10:10:01;1013.7;;;10.9
79148;BMP280;68562;51.600;6.524;2023-12-20T10:15:00;1013.6;;;10.9
79148;BMP280;68562;51.600;6.524;2023-12-20T10:20:01;1013.6;;;11.0
79148;BMP280;68562;51.600;6.524;2023-12-20T10:25:00;1013.6;;;10.9
79148;BMP280;68562;51.600;6.524;2023-12-20T10:30:00;1013.5;;;10.9
79148;BMP280;68562;51.600;6.524;2023-12-20T10:35:00;1013.5;;;10.9
79148;BMP280;68562;51.600;6.524;2023-12-20T10:40:03;1013.5;;;11.1
79148;BMP280;68562;51.600;6.524;2023-12-20T10:45:00;1013.4;;;11.2
79148;BMP280;68562;51.600;6.524;2023-12-20T10:50:01;1013.5;;;11.2
79148;BMP280;68562;51.600;6.524;2023-12-20T10:55:00;1013.5;;;11.4
79148;BMP280;68562;51.600;6.524;2023-12-20T11:00:01;1013.4;;;11.3
79148;BMP280;68562;51.600;6.524;2023-12-20T11:05:06;1013.4;;;11.2
79148;BMP280;68562;51.600;6.524;2023-12-20T11:10:04;1013.3;;;11.1
79148;BMP280;68562;51.600;6.524;2023-12-20T11:15:00;1013.2;;;11.1
79148;BMP280;68562;51.600;6.524;2023-12-20T11:20:06;1013.2;;;11.2
79148;BMP280;68562;51.600;6.524;2023-12-20T11:25:03;1013.2;;;11.3
79148;BMP280;68562;51.600;6.524;2023-12-20T11:30:02;1013.1;;;11.3
79148;BMP280;68562;51.600;6.524;2023-12-20T11:35:01;1013.0;;;11.2
79148;BMP280;68562;51.600;6.524;2023-12-20T11:40:01;1013.0;;;11.3
79148;BMP280;68562;51.600;6.524;2023-12-20T11:45:01;1013.1;;;11.2
79148;BMP280;68562;51.600;6.524;2023-12-20T11:50:00;1013.0;;;11.2
79148;BMP280;68562;51.600;6.524;2023-12-20T11:55:00;1012.9;;;11.2
79148;BMP280;68562;51.600;6.524;2023-12-20T12:00:00;1012.8;;;11.1
79148;BMP280;68562;51.600;6.524;2023-12-20T12:05:00;1012.8;;;11.3
79148;BMP280;68562;51.600;6.524;2023-12-20T12:10:00;1012.7;;;11.4
79148;BMP280;68562;51.600;6.524;2023-12-20T12:15:01;1012.7;;;11.7
79148;BMP280;68562;51.600;6.524;2023-12-20T12:20:02;1012.8;;;11.8
79148;BMP280;68562;51.600;6.524;2023-12-20T12:25:10;1012.7;;;11.8
79148;BMP280;68562;51.600;6.524;2023-12-20T12:30:01;1012.7;;;11.8
79148;BMP280;68562;51.600;6.524;2023-12-20T12:35:02;1012.6;;;11.9
79148;BMP280;68562;51.600;6.524;2023-12-20T12:40:00;1012.5;;;11.9
79148;BMP280;68562;51.600;6.524;2023-12-20T12:45:00;1012.5;;;11.9
79148;BMP280;68562;51.600;6.524;2023-12-20T12:50:00;1012.4;;;11.8
79148;BMP280;68562;51.600;6.524;2023-12-20T12:55:00;1012.3;;;11.6
79148;BMP280;68562;51.600;6.524;2023-12-20T13:00:01;1012.4;;;11.4
79148;BMP280;68562;51.600;6.524;2023-12-20T13:05:00;1012.2;;;11.4
79148;BMP280;68562;51.600;6.524;2023-12-20T13:10:00;1012.0;;;11.3
79148;BMP280;68562;51.600;6.524;2023-12-20T13:15:02;1012.0;;;11.3
79148;BMP280;68562;51.600;6.524;2023-12-20T13:20:00;1011.9;;;11.3
79148;BMP280;68562;51.600;6.524;2023-12-20T13:25:00;1012.0;;;11.3
79148;BMP280;68562;51.600;6.524;2023-12-20T13:30:02;1011.9;;;11.3
79148;BMP280;68562;51.600;6.524;2023-12-20T13:35:00;1011.9;;;11.2
79148;BMP280;68562;51.600;6.524;2023-12-20T13:40:00;1011.8;;;11.4
79148;BMP280;68562;51.600;6.524;2023-12-20T13:45:01;1011.8;;;11.3
79148;BMP280;68562;51.600;6.524;2023-12-20T13:50:00;1011.8;;;11.4
79148;BMP280;68562;51.600;6.524;2023-12-20T13:55:00;1011.7;;;11.3
79148;BMP280;68562;51.600;6.524;2023-12-20T14:00:00;1011.6;;;11.3
79148;BMP280;68562;51.600;6.524;2023-12-20T14:05:00;1011.6;;;11.3
79148;BMP280;68562;51.600;6.524;2023-12-20T14:10:00;1011.5;;;11.3
79148;BMP280;68562;51.600;6.524;2023-12-20T14:15:00;1011.6;;;11.4
79148;BMP280;68562;51.600;6.524;2023-12-20T14:20:00;1011.6;;;11.5
79148;BMP280;68562;51.600;6.524;2023-12-20T14:25:00;1011.6;;;11.5
79148;BMP280;68562;51.600;6.524;2023-12-20T14:30:00;1011.6;;;11.5
79148;BMP280;68562;51.600;6.524;2023-12-20T14:35:00;1011.6;;;11.5
79148;BMP280;68562;51.600;6.524;2023-12-20T14:40:00;1011.6;;;11.5
79148;BMP280;68562;51.600;6.524;2023-12-20T14:45:00;1011.6;;;11.6
79148;BMP280;68562;51.600;6.524;2023-12-20T14:50:01;1011.6;;;11.6
79148;BMP280;68562;51.600;6.524;2023-12-20T14:55:00;1011.7;;;11.6
79148;BMP280;68562;51.600;6.524;2023-12-20T15:00:00;1011.6;;;11.7
79148;BMP280;68562;51.600;6.524;2023-12-20T15:05:00;1011.6;;;11.5
79148;BMP280;68562;51.600;6.524;2023-12-20T15:10:00;1011.7;;;11.5
79148;BMP280;68562;51.600;6.524;2023-12-20T15:15:02;1011.6;;;11.4
79148;BMP280;68562;51.600;6.524;2023-12-20T15:20:00;1011.5;;;11.4
79148;BMP280;68562;51.600;6.524;2023-12-20T15:25:00;1011.4;;;11.4
79148;BMP280;68562;51.600;6.524;2023-12-20T15:30:01;1011.5;;;11.6
79148;BMP280;68562;51.600;6.524;2023-12-20T15:35:00;1011.6;;;11.6
79148;BMP280;68562;51.600;6.524;2023-12-20T15:40:00;1011.6;;;11.5
79148;BMP280;68562;51.600;6.524;2023-12-20T15:45:00;1011.5;;;11.4
79148;BMP280;68562;51.600;6.524;2023-12-20T15:50:00;1011.4;;;11.5
79148;BMP280;68562;51.600;6.524;2023-12-20T15:55:00;1011.4;;;11.4
79148;BMP280;68562;51.600;6.524;2023-12-20T16:00:00;1011.3;;;11.4
79148;BMP280;68562;51.600;6.524;2023-12-20T16:05:00;1011.3;;;11.4
79148;BMP280;68562;51.600;6.524;2023-12-20T16:10:00;1011.2;;;11.5
79148;BMP280;68562;51.600;6.524;2023-12-20T16:15:00;1011.1;;;11.4
79148;BMP280;68562;51.600;6.524;2023-12-20T16:20:00;1011.1;;;11.4
79148;BMP280;68562;51.600;6.524;2023-12-20T16:25:00;1011.0;;;11.4
79148;BMP280;68562;51.600;6.524;2023-12-20T16:30:01;1011.0;;;11.5
79148;BMP280;68562;51.600;6.524;2023-12-20T16:35:00;1011.0;;;11.6
79148;BMP280;68562;51.600;6.524;2023-12-20T16:40:00;1010.9;;;11.4
79148;BMP280;68562;51.600;6.524;2023-12-20T16:45:01;1010.8;;;11.4
79148;BMP280;68562;51.600;6.524;2023-12-20T16:50:00;1010.8;;;11.5
79148;BMP280;68562;51.600;6.524;2023-12-20T16:55:00;1010.8;;;11.4
79148;BMP280;68562;51.600;6.524;2023-12-20T17:00:04;1010.8;;;11.4
79148;BMP280;68562;51.600;6.524;2023-12-20T17:05:00;1010.6;;;11.4
79148;BMP280;68562;51.600;6.524;2023-12-20T17:10:00;1010.6;;;11.3
79148;BMP280;68562;51.600;6.524;2023-12-20T17:15:01;1010.4;;;11.4
79148;BMP280;68562;51.600;6.524;2023-12-20T17:20:00;1010.4;;;11.4
79148;BMP280;68562;51.600;6.524;2023-12-20T17:25:00;1010.4;;;11.5
79148;BMP280;68562;51.600;6.524;2023-12-20T17:30:00;1010.2;;;11.6
79148;BMP280;68562;51.600;6.524;2023-12-20T17:35:00;1010.2;;;11.5
79148;BMP280;68562;51.600;6.524;2023-12-20T17:40:00;1010.1;;;11.5
79148;BMP280;68562;51.600;6.524;2023-12-20T17:45:00;1010.1;;;11.4
79148;BMP280;68562;51.600;6.524;2023-12-20T17:50:00;1010.0;;;11.3
79148;BMP280;68562;51.600;6.524;2023-12-20T17:55:00;1009.8;;;11.4
79148;BMP280;68562;51.600;6.524;2023-12-20T18:00:10;1009.8;;;11.6
79148;BMP280;68562;51.600;6.524;2023-12-20T18:05:00;1009.7;;;11.6
79148;BMP280;68562;51.600;6.524;2023-12-20T18:10:00;1009.6;;;11.5
79148;BMP280;68562;51.600;6.524;2023-12-20T18:15:04;1009.7;;;11.5
79148;BMP280;68562;51.600;6.524;2023-12-20T18:20:01;1009.5;;;11.4
79148;BMP280;68562;51.600;6.524;2023-12-20T18:25:00;1009.5;;;11.4
79148;BMP280;68562;51.600;6.524;2023-12-20T18:30:00;1009.4;;;11.5
79148;BMP280;68562;51.600;6.524;2023-12-20T18:35:00;1009.3;;;11.5
79148;BMP280;68562;51.600;6.524;2023-12-20T18:40:00;1009.2;;;11.4
79148;BMP280;68562;51.600;6.524;2023-12-20T18:45:00;1009.2;;;11.4
79148;BMP280;68562;51.600;6.524;2023-12-20T18:50:00;1009.2;;;11.3
79148;BMP280;68562;51.600;6.524;2023-12-20T18:55:00;1009.2;;;11.2
79148;BMP280;68562;51.600;6.524;2023-12-20T19:00:00;1009.1;;;11.3
79148;BMP280;68562;51.600;6.524;2023-12-20T19:05:00;1009.0;;;11.4
79148;BMP280;68562;51.600;6.524;2023-12-20T19:10:00;1008.8;;;11.4
79148;BMP280;68562;51.600;6.524;2023-12-20T19:15:00;1008.8;;;11.5
79148;BMP280;68562;51.600;6.524;2023-12-20T19:20:00;1008.7;;;11.6
79148;BMP280;68562;51.600;6.524;2023-12-20T19:25:00;1008.7;;;11.6
79148;BMP280;68562;51.600;6.524;2023-12-20T19:30:01;1008.7;;;11.6
79148;BMP280;68562;51.600;6.524;2023-12-20T19:35:00;1008.7;;;11.6
79148;BMP280;68562;51.600;6.524;2023-12-20T19:40:00;1008.7;;;11.5
79148;BMP280;68562;51.600;6.524;2023-12-20T19:45:00;1008.6;;;11.6
79148;BMP280;68562;51.600;6.524;2023-12-20T19:50:00;1008.5;;;11.6
79148;BMP280;68562;51.600;6.524;2023-12-20T19:55:00;1008.4;;;11.6
79148;BMP280;68562;51.600;6.524;2023-12-20T20:00:00;1008.3;;;11.6
79148;BMP280;68562;51.600;6.524;2023-12-20T20:05:00;1008.2;;;11.6
79148;BMP280;68562;51.600;6.524;2023-12-20T20:10:00;1008.2;;;11.5
79148;BMP280;68562;51.600;6.524;2023-12-20T20:15:00;1008.2;;;11.6
79148;BMP280;68562;51.600;6.524;2023-12-20T20:20:00;1008.0;;;11.5
79148;BMP280;68562;51.600;6.524;2023-12-20T20:25:00;1008.0;;;11.5
79148;BMP280;68562;51.600;6.524;2023-12-20T20:30:00;1007.8;;;11.5
79148;BMP280;68562;51.600;6.524;2023-12-20T20:35:00;1007.9;;;11.6
79148;BMP280;68562;51.600;6.524;2023-12-20T20:40:00;1008.0;;;11.8
79148;BMP280;68562;51.600;6.524;2023-12-20T20:45:00;1007.9;;;11.7
79148;BMP280;68562;51.600;6.524;2023-12-20T20:50:00;1007.9;;;11.8
79148;BMP280;68562;51.600;6.524;2023-12-20T20:55:00;1007.9;;;11.7
79148;BMP280;68562;51.600;6.524;2023-12-20T21:00:00;1007.9;;;11.9
79148;BMP280;68562;51.600;6.524;2023-12-20T21:05:00;1007.8;;;11.9
79148;BMP280;68562;51.600;6.524;2023-12-20T21:10:00;1007.7;;;11.8
79148;BMP280;68562;51.600;6.524;2023-12-20T21:15:02;1007.7;;;11.8
79148;BMP280;68562;51.600;6.524;2023-12-20T21:20:00;1007.6;;;11.7
79148;BMP280;68562;51.600;6.524;2023-12-20T21:25:00;1007.5;;;11.8
79148;BMP280;68562;51.600;6.524;2023-12-20T21:30:01;1007.5;;;11.9
79148;BMP280;68562;51.600;6.524;2023-12-20T21:35:00;1007.4;;;12.0
79148;BMP280;68562;51.600;6.524;2023-12-20T21:40:00;1007.4;;;12.0
79148;BMP280;68562;51.600;6.524;2023-12-20T21:45:00;1007.3;;;11.9
79148;BMP280;68562;51.600;6.524;2023-12-20T21:50:00;1007.1;;;11.9
79148;BMP280;68562;51.600;6.524;2023-12-20T21:55:00;1007.2;;;11.8
79148;BMP280;68562;51.600;6.524;2023-12-20T22:00:00;1007.1;;;12.0
79148;BMP280;68562;51.600;6.524;2023-12-20T22:05:00;1007.1;;;11.8
79148;BMP280;68562;51.600;6.524;2023-12-20T22:10:00;1007.1;;;11.9
79148;BMP280;68562;51.600;6.524;2023-12-20T22:15:03;1006.9;;;11.8
79148;BMP280;68562;51.600;6.524;2023-12-20T22:20:00;1006.9;;;11.8
79148;BMP280;68562;51.600;6.524;2023-12-20T22:25:00;1006.9;;;11.8
79148;BMP280;68562;51.600;6.524;2023-12-20T22:30:01;1007.1;;;11.9
79148;BMP280;68562;51.600;6.524;2023-12-20T22:35:00;1007.0;;;11.7
79148;BMP280;68562;51.600;6.524;2023-12-20T22:40:00;1006.9;;;11.8
79148;BMP280;68562;51.600;6.524;2023-12-20T22:45:03;1006.9;;;11.8
79148;BMP280;68562;51.600;6.524;2023-12-20T22:50:00;1006.7;;;11.9
79148;BMP280;68562;51.600;6.524;2023-12-20T22:55:00;1006.6;;;11.7
79148;BMP280;68562;51.600;6.524;2023-12-20T23:00:00;1006.6;;;11.8
79148;BMP280;68562;51.600;6.524;2023-12-20T23:05:00;1006.5;;;11.9
79148;BMP280;68562;51.600;6.524;2023-12-20T23:10:00;1006.6;;;11.9
79148;BMP280;68562;51.600;6.524;2023-12-20T23:15:00;1006.5;;;11.9
79148;BMP280;68562;51.600;6.524;2023-12-20T23:20:00;1006.4;;;11.9
79148;BMP280;68562;51.600;6.524;2023-12-20T23:25:00;1006.2;;;12.0
79148;BMP280;68562;51.600;6.524;2023-12-20T23:30:00;1006.3;;;12.1
79148;BMP280;68562;51.600;6.524;2023-12-20T23:35:00;1006.1;;;12.1
79148;BMP280;68562;51.600;6.524;2023-12-20T23:40:00;1005.9;;;12.1
79148;BMP280;68562;51.600;6.524;2023-12-20T23:45:00;1005.9;;;12.1
79148;BMP280;68562;51.600;6.524;2023-12-20T23:50:00;1005.8;;;12.1
79148;BMP280;68562;51.600;6.524;2023-12-20T23:55:00;1005.5;;;12.1
